Terminal Aerodrome Forecast
Issued by NWS Tampa Bay Area, FL

Home | Current Version | Previous Version | Text Only | Print | Product List | Glossary On
Versions: 1 2 3 4 5 6 7 8 9 10 11 12
000
FTUS42 KTBW 272323
TAFSRQ
TAF
KSRQ 272323Z 2800/2824 23006KT P6SM FEW035 SCT250
     FM280200 VRB03KT P6SM FEW050 SCT250
     FM281500 25007KT P6SM FEW030 SCT250
     FM281900 28009KT P6SM SCT035 SCT250=

USA.gov is the U.S. government's official web portal to all federal, state and local government web resources and services.